createdAt,value
2023-04-27T00:00:44.867Z,102043.00
2023-04-27T00:03:13.870Z,102031.81
2023-04-27T00:05:43.031Z,102038.72
2023-04-27T00:08:14.204Z,102034.44
2023-04-27T00:10:43.254Z,102039.59
2023-04-27T00:13:11.956Z,102043.06
2023-04-27T00:15:41.042Z,102043.00
2023-04-27T00:18:09.882Z,101968.38
2023-04-27T00:20:41.262Z,102044.72
2023-04-27T00:23:09.960Z,102036.94
2023-04-27T00:25:40.192Z,102028.34
2023-04-27T00:28:09.026Z,102035.22
2023-04-27T00:30:37.798Z,102040.41
2023-04-27T00:33:07.169Z,102025.78
2023-04-27T00:35:36.040Z,102030.03
2023-04-27T00:38:04.781Z,102028.34
2023-04-27T00:40:35.778Z,102025.78
2023-04-27T00:43:08.321Z,102029.25
2023-04-27T00:45:43.687Z,102026.72
2023-04-27T00:48:13.475Z,102025.94
2023-04-27T00:50:42.752Z,101947.94
2023-04-27T00:53:11.530Z,102021.66
2023-04-27T00:55:44.471Z,102025.13
2023-04-27T00:58:14.598Z,102021.66
2023-04-27T01:00:43.739Z,101931.69
2023-04-27T01:03:16.685Z,102024.28
2023-04-27T01:05:48.346Z,102009.75
2023-04-27T01:08:17.179Z,102028.63
2023-04-27T01:10:46.025Z,102030.38
2023-04-27T01:13:16.195Z,102037.25
2023-04-27T01:15:44.992Z,102036.38
2023-04-27T01:18:13.911Z,102029.50
2023-04-27T01:20:43.268Z,102033.78
2023-04-27T01:23:17.383Z,102025.19
2023-04-27T01:25:46.525Z,102020.91
2023-04-27T01:28:16.214Z,102020.03
2023-04-27T01:30:44.993Z,102011.53
2023-04-27T01:33:13.730Z,102015.81
2023-04-27T01:35:42.544Z,102014.13
2023-04-27T01:38:11.405Z,102005.53
2023-04-27T01:40:41.732Z,102011.56
2023-04-27T01:43:10.564Z,102013.28
2023-04-27T01:45:39.346Z,102003.84
2023-04-27T01:48:08.305Z,101999.56
2023-04-27T01:50:37.080Z,102009.00
2023-04-27T01:53:05.873Z,101991.00
2023-04-27T01:55:34.705Z,102000.44
2023-04-27T01:58:05.494Z,102011.56
2023-04-27T02:05:29.504Z,101988.34
2023-04-27T02:07:58.723Z,102002.09
2023-04-27T02:10:29.525Z,102001.22
2023-04-27T02:12:59.256Z,101992.63
2023-04-27T02:15:32.243Z,101987.50
2023-04-27T02:18:04.795Z,101988.41
2023-04-27T02:20:34.290Z,102022.72
2023-04-27T02:23:03.797Z,101991.81
2023-04-27T02:25:32.566Z,101967.81
2023-04-27T02:28:01.598Z,101956.53
2023-04-27T02:30:33.401Z,101977.97
2023-04-27T02:33:02.246Z,101984.88
2023-04-27T02:35:36.007Z,101929.19
2023-04-27T02:38:04.930Z,101975.47
2023-04-27T02:40:36.793Z,101965.22
2023-04-27T02:43:08.939Z,101978.13
2023-04-27T02:45:39.746Z,101978.97
2023-04-27T02:48:08.563Z,101979.81
2023-04-27T02:50:42.260Z,101979.88
2023-04-27T02:53:11.592Z,101982.44
2023-04-27T02:55:46.445Z,101984.16
2023-04-27T02:58:15.401Z,101988.44
2023-04-27T03:00:45.755Z,101983.34
2023-04-27T03:03:14.822Z,101989.31
2023-04-27T03:07:09.301Z,101991.91
2023-04-27T03:10:10.845Z,101991.94
2023-04-27T03:12:42.216Z,101926.72
2023-04-27T03:15:11.970Z,101990.19
2023-04-27T03:17:42.402Z,101993.63
2023-04-27T03:20:12.870Z,101989.34
2023-04-27T03:22:41.818Z,101986.78
2023-04-27T03:25:11.308Z,101997.88
2023-04-27T03:27:41.119Z,101995.34
2023-04-27T03:30:13.608Z,101998.81
2023-04-27T03:32:47.033Z,101998.78
2023-04-27T03:35:16.920Z,101997.06
2023-04-27T03:37:47.641Z,101997.06
2023-04-27T03:40:19.725Z,101992.78
2023-04-27T03:42:48.930Z,101990.16
2023-04-27T03:45:22.432Z,101968.75
2023-04-27T03:47:53.896Z,101991.91
2023-04-27T03:50:22.857Z,101996.19
2023-04-27T03:52:51.638Z,101994.50
2023-04-27T03:55:21.179Z,102003.03
2023-04-27T03:57:50.342Z,102000.50
2023-04-27T04:00:19.372Z,102003.06
2023-04-27T04:07:50.281Z,101987.66
2023-04-27T04:10:20.023Z,102027.94
2023-04-27T04:12:53.157Z,102017.66
2023-04-27T04:15:22.211Z,102012.53
2023-04-27T04:17:54.019Z,102015.09
2023-04-27T04:20:22.982Z,102008.22
2023-04-27T04:22:54.153Z,102022.81
2023-04-27T04:25:26.213Z,102024.53
2023-04-27T04:27:55.126Z,102020.25
2023-04-27T04:30:24.465Z,102020.25
2023-04-27T04:32:55.460Z,102013.41
2023-04-27T04:35:26.151Z,102027.09
2023-04-27T04:37:56.389Z,102022.84
2023-04-27T04:40:25.719Z,101927.59
2023-04-27T04:42:54.828Z,102029.69
2023-04-27T04:45:23.825Z,102036.56
2023-04-27T04:47:54.518Z,102042.56
2023-04-27T04:50:24.014Z,102032.28
2023-04-27T04:52:53.449Z,102038.28
2023-04-27T04:55:23.675Z,102002.22
2023-04-27T04:57:53.060Z,102023.66
2023-04-27T05:00:22.693Z,102025.38
2023-04-27T05:02:51.961Z,102030.53
2023-04-27T05:05:21.249Z,102034.81
2023-04-27T05:07:50.056Z,102034.84
2023-04-27T05:10:19.065Z,102040.84
2023-04-27T05:12:49.362Z,102046.84
2023-04-27T05:15:18.192Z,102047.72
2023-04-27T05:17:46.937Z,102054.59
2023-04-27T05:20:16.243Z,102048.56
2023-04-27T05:22:47.817Z,102046.84
2023-04-27T05:25:18.081Z,102045.13
2023-04-27T05:27:46.816Z,102051.13
2023-04-27T05:30:17.028Z,102052.00
2023-04-27T05:32:45.796Z,102040.81
2023-04-27T05:35:14.592Z,102042.50
2023-04-27T05:37:43.500Z,102040.75
2023-04-27T05:40:13.194Z,102027.88
2023-04-27T05:42:41.987Z,102044.03
2023-04-27T05:45:12.062Z,102043.19
2023-04-27T05:47:44.767Z,102043.19
2023-04-27T05:50:13.627Z,102041.31
2023-04-27T05:52:42.422Z,102038.78
2023-04-27T05:55:13.443Z,102049.06
2023-04-27T05:57:42.330Z,102046.44
2023-04-27T06:00:12.902Z,102049.00
2023-04-27T06:02:42.056Z,102028.38
2023-04-27T06:05:12.661Z,102043.66
2023-04-27T06:07:43.786Z,102024.69
2023-04-27T06:10:12.626Z,101966.38
2023-04-27T06:12:42.219Z,102039.06
2023-04-27T06:15:12.602Z,102048.28
2023-04-27T06:17:43.778Z,102053.22
2023-04-27T06:20:14.187Z,102051.94
2023-04-27T06:22:43.019Z,102026.25
2023-04-27T06:25:11.804Z,102050.19
2023-04-27T06:27:40.887Z,102032.03
2023-04-27T06:30:10.918Z,102047.16
2023-04-27T06:32:41.957Z,102043.25
2023-04-27T06:35:11.224Z,102036.28
2023-04-27T06:38:40.384Z,102034.34
2023-04-27T06:41:10.938Z,102043.66
2023-04-27T06:43:39.804Z,102019.56
2023-04-27T06:46:08.806Z,102033.16
2023-04-27T06:48:37.767Z,102041.75
2023-04-27T06:51:06.913Z,102033.69
2023-04-27T06:53:35.855Z,102047.31
2023-04-27T06:56:04.750Z,102043.06
2023-04-27T06:58:35.004Z,102045.47
2023-04-27T07:01:04.151Z,102049.78
2023-04-27T07:03:36.201Z,102052.25
2023-04-27T07:06:05.857Z,102049.97
2023-04-27T07:08:35.026Z,102051.44
2023-04-27T07:11:03.892Z,102049.81
2023-04-27T07:13:34.077Z,102057.91
2023-04-27T07:16:02.886Z,102048.72
2023-04-27T07:18:31.871Z,102044.16
2023-04-27T07:21:01.082Z,102041.88
2023-04-27T07:23:29.939Z,102030.44
2023-04-27T07:25:59.166Z,102043.22
2023-04-27T07:28:29.953Z,102038.94
2023-04-27T07:31:00.202Z,102036.16
2023-04-27T07:33:28.997Z,102042.25
2023-04-27T07:35:58.121Z,102045.84
2023-04-27T07:38:29.306Z,102051.56
2023-04-27T07:41:00.050Z,102040.75
2023-04-27T07:43:28.932Z,102049.47
2023-04-27T07:45:58.467Z,102050.03
2023-04-27T07:48:32.252Z,102041.78
2023-04-27T07:51:01.483Z,102039.88
2023-04-27T07:53:30.355Z,102040.16
2023-04-27T07:55:59.149Z,102047.41
2023-04-27T07:58:28.243Z,102041.59
2023-04-27T08:00:57.513Z,102039.56
2023-04-27T08:03:26.371Z,102044.63
2023-04-27T08:05:57.404Z,102041.66
2023-04-27T08:08:26.874Z,102049.75
2023-04-27T08:10:55.672Z,102045.09
2023-04-27T08:13:27.030Z,102047.97
2023-04-27T08:15:58.582Z,102040.81
2023-04-27T08:18:27.895Z,102048.81
2023-04-27T08:21:02.281Z,102037.25
2023-04-27T08:23:31.361Z,102025.38
2023-04-27T08:26:00.196Z,102032.00
2023-04-27T08:28:29.192Z,102027.81
2023-04-27T08:30:57.955Z,102031.28
2023-04-27T08:33:26.901Z,102038.00
2023-04-27T08:35:55.970Z,102016.47
2023-04-27T08:38:26.257Z,101966.44
2023-04-27T08:40:55.050Z,102035.91
2023-04-27T08:43:23.802Z,102024.09
2023-04-27T08:45:53.148Z,102031.53
2023-04-27T08:48:22.239Z,101973.69
2023-04-27T08:50:52.733Z,102026.22
2023-04-27T08:53:22.336Z,102030.28
2023-04-27T08:55:52.621Z,102028.75
2023-04-27T08:58:23.599Z,102033.88
2023-04-27T09:00:52.825Z,102025.03
2023-04-27T09:03:24.208Z,102011.09
2023-04-27T09:06:04.501Z,102054.19
2023-04-27T09:08:45.455Z,102022.13
2023-04-27T09:11:29.574Z,102026.91
2023-04-27T09:13:59.775Z,102022.53
2023-04-27T09:16:30.737Z,102016.56
2023-04-27T09:19:00.212Z,102018.13
2023-04-27T09:21:31.171Z,102002.13
2023-04-27T09:23:59.876Z,102010.00
2023-04-27T09:26:32.445Z,102007.22
2023-04-27T09:29:01.422Z,102019.03
2023-04-27T09:31:33.679Z,102015.19
2023-04-27T09:34:05.202Z,102012.31
2023-04-27T09:36:34.068Z,102011.63
2023-04-27T09:39:05.296Z,102016.03
2023-04-27T09:41:36.655Z,102020.88
2023-04-27T09:44:06.064Z,102033.09
2023-04-27T09:46:35.137Z,102010.13
2023-04-27T09:49:06.067Z,102008.66
2023-04-27T09:51:35.257Z,102016.47
2023-04-27T09:54:06.033Z,102015.09
2023-04-27T09:56:53.683Z,102013.13
2023-04-27T09:59:57.227Z,102011.22
2023-04-27T10:02:30.048Z,102006.91
2023-04-27T10:05:28.658Z,102008.41
2023-04-27T10:07:57.622Z,102008.31
2023-04-27T10:10:28.634Z,102012.88
2023-04-27T10:12:59.704Z,101997.25
2023-04-27T10:15:29.935Z,102002.72
2023-04-27T10:18:06.282Z,101999.56
2023-04-27T10:20:38.192Z,101992.22
2023-04-27T10:23:07.048Z,101932.66
2023-04-27T10:25:40.410Z,102001.66
2023-04-27T10:28:17.471Z,101997.69
2023-04-27T10:30:49.175Z,101993.13
2023-04-27T10:33:19.609Z,101993.38
2023-04-27T10:35:57.361Z,102002.53
2023-04-27T10:38:31.091Z,101993.13
2023-04-27T10:41:01.966Z,101984.81
2023-04-27T10:43:34.296Z,101985.47
2023-04-27T10:46:10.519Z,101990.06
2023-04-27T10:48:42.420Z,101974.81
2023-04-27T10:51:12.356Z,101988.63
2023-04-27T10:53:43.634Z,101984.16
2023-04-27T10:56:12.413Z,101980.88
2023-04-27T10:58:48.725Z,101984.19
2023-04-27T11:01:25.719Z,101972.91
2023-04-27T11:03:57.830Z,101965.75
2023-04-27T11:06:28.242Z,101959.41
2023-04-27T11:08:57.433Z,101951.53
2023-04-27T11:11:26.472Z,101952.50
2023-04-27T11:13:56.898Z,101869.97
2023-04-27T11:18:55.877Z,101927.56
2023-04-27T11:21:25.621Z,101950.88
2023-04-27T11:23:54.729Z,101943.38
2023-04-27T11:26:26.757Z,101934.81
2023-04-27T11:29:01.570Z,101943.28
2023-04-27T11:31:40.888Z,101942.03
2023-04-27T11:34:10.122Z,101935.78
2023-04-27T11:36:38.918Z,101930.63
2023-04-27T11:39:09.372Z,101912.97
2023-04-27T11:41:39.325Z,101929.44
2023-04-27T11:44:11.567Z,101926.03
2023-04-27T11:46:41.439Z,101927.16
2023-04-27T11:49:10.341Z,101923.19
2023-04-27T11:51:41.590Z,101925.88
2023-04-27T11:54:11.670Z,101928.16
2023-04-27T11:56:42.989Z,101924.03
2023-04-27T11:59:22.123Z,101926.22
2023-04-27T12:01:52.968Z,101909.66
2023-04-27T12:04:22.201Z,101916.06
2023-04-27T12:06:51.191Z,101913.66
2023-04-27T12:09:20.001Z,101917.84
2023-04-27T12:11:48.994Z,101915.06
2023-04-27T12:14:21.323Z,101917.38
2023-04-27T12:16:50.143Z,101915.06
2023-04-27T12:19:19.281Z,101907.97
2023-04-27T12:21:48.630Z,101912.59
2023-04-27T12:24:17.772Z,101911.03
2023-04-27T12:26:46.696Z,101905.03
2023-04-27T12:29:15.460Z,101911.28
2023-04-27T12:31:45.798Z,101906.81
2023-04-27T12:34:14.909Z,101903.84
2023-04-27T12:36:43.979Z,101907.97
2023-04-27T12:39:18.430Z,101888.78
2023-04-27T12:41:51.117Z,101896.47
2023-04-27T12:44:21.304Z,101894.56
2023-04-27T12:46:52.010Z,101889.91
2023-04-27T12:49:21.264Z,101873.41
2023-04-27T12:51:52.036Z,101885.59
2023-04-27T12:54:21.290Z,101886.69
2023-04-27T12:56:51.203Z,101887.75
2023-04-27T12:59:20.154Z,101892.44
2023-04-27T13:01:49.865Z,101890.34
2023-04-27T13:04:22.719Z,101872.69
2023-04-27T13:06:52.306Z,101881.44
2023-04-27T13:09:21.562Z,101876.38
2023-04-27T13:11:50.585Z,101880.75
2023-04-27T13:14:19.318Z,101878.97
2023-04-27T13:16:49.796Z,101880.66
2023-04-27T13:19:19.976Z,101871.31
2023-04-27T13:21:48.878Z,101871.22
2023-04-27T13:24:18.507Z,101867.38
2023-04-27T13:26:47.276Z,101868.28
2023-04-27T13:29:16.038Z,101860.56
2023-04-27T13:31:44.835Z,101864.13
2023-04-27T13:34:16.359Z,101859.16
2023-04-27T13:36:48.905Z,101853.75
2023-04-27T13:39:22.072Z,101851.34
2023-04-27T13:41:51.055Z,101852.41
2023-04-27T13:44:20.435Z,101856.91
2023-04-27T13:46:49.676Z,101851.03
2023-04-27T13:49:18.424Z,101846.53
2023-04-27T13:51:48.615Z,101841.38
2023-04-27T13:54:17.348Z,101831.91
2023-04-27T13:56:46.085Z,101806.72
2023-04-27T13:59:17.338Z,101832.34
2023-04-27T14:01:46.140Z,101833.44
2023-04-27T14:04:15.108Z,101823.25
2023-04-27T14:06:44.240Z,101806.47
2023-04-27T14:09:17.011Z,101800.81
2023-04-27T14:11:55.787Z,101809.53
2023-04-27T14:14:25.880Z,101801.84
2023-04-27T14:16:54.877Z,101801.63
2023-04-27T14:19:23.836Z,101791.72
2023-04-27T14:21:52.634Z,101800.09
2023-04-27T14:24:23.097Z,101781.59
2023-04-27T14:26:52.012Z,101786.50
2023-04-27T14:29:21.301Z,101787.44
2023-04-27T14:31:50.273Z,101785.03
2023-04-27T14:34:21.493Z,101773.28
2023-04-27T14:36:50.494Z,101775.69
2023-04-27T14:39:19.189Z,101771.38
2023-04-27T14:41:49.448Z,101779.63
2023-04-27T14:44:18.339Z,101769.28
2023-04-27T14:46:49.417Z,101773.38
2023-04-27T14:49:18.293Z,101775.25
2023-04-27T14:51:47.055Z,101770.44
2023-04-27T14:54:16.088Z,101727.63
2023-04-27T14:56:45.687Z,101693.59
2023-04-27T14:59:16.196Z,101759.09
2023-04-27T15:01:45.289Z,101748.56
2023-04-27T15:04:14.367Z,101741.69
2023-04-27T15:06:43.224Z,101727.56
2023-04-27T15:09:13.498Z,101746.19
2023-04-27T15:11:42.654Z,101747.31
2023-04-27T15:14:11.671Z,101733.19
2023-04-27T15:16:41.913Z,101747.34
2023-04-27T15:19:10.995Z,101750.66
2023-04-27T15:21:39.726Z,101723.91
2023-04-27T15:24:08.488Z,101750.41
2023-04-27T15:26:37.524Z,101734.19
2023-04-27T15:29:06.495Z,101747.34
2023-04-27T15:31:35.333Z,101737.56
2023-04-27T15:34:05.712Z,101727.72
2023-04-27T15:36:34.740Z,101731.16
2023-04-27T15:39:04.154Z,101722.44
2023-04-27T15:41:33.005Z,101727.72
2023-04-27T15:44:01.723Z,101706.78
2023-04-27T15:46:30.482Z,101709.09
2023-04-27T15:53:57.570Z,101694.69
2023-04-27T15:56:30.025Z,101703.09
2023-04-27T15:59:02.234Z,101690.69
2023-04-27T16:01:33.543Z,101699.66
2023-04-27T16:04:02.589Z,101699.91
2023-04-27T16:06:33.334Z,101694.56
2023-04-27T16:09:04.010Z,101680.88
2023-04-27T16:11:33.167Z,101685.00
2023-04-27T16:14:02.230Z,101670.66
2023-04-27T16:16:33.505Z,101673.41
2023-04-27T16:19:02.348Z,101587.06
2023-04-27T16:21:32.136Z,101652.63
2023-04-27T16:24:01.247Z,101653.97
2023-04-27T16:26:31.850Z,101656.81
2023-04-27T16:29:00.784Z,101637.72
2023-04-27T16:31:30.449Z,101644.00
2023-04-27T16:33:59.341Z,101634.13
2023-04-27T16:36:28.719Z,101643.63
2023-04-27T16:38:57.688Z,101640.63
2023-04-27T16:41:26.751Z,101638.78
2023-04-27T16:43:57.041Z,101636.38
2023-04-27T16:46:25.883Z,101639.56
2023-04-27T16:48:54.634Z,101643.91
2023-04-27T16:56:40.474Z,101654.78
2023-04-27T16:59:13.375Z,101642.03
2023-04-27T17:01:42.415Z,101649.09
2023-04-27T17:04:12.149Z,101640.16
2023-04-27T17:06:41.969Z,101627.19
2023-04-27T17:09:10.989Z,101628.00
2023-04-27T17:11:39.854Z,101632.31
2023-04-27T17:14:08.635Z,101609.84
2023-04-27T17:16:38.893Z,101647.34
2023-04-27T17:19:07.752Z,101639.41
2023-04-27T17:21:37.029Z,101547.25
2023-04-27T17:24:10.536Z,101636.19
2023-04-27T17:26:39.528Z,101632.66
2023-04-27T17:29:08.338Z,101636.38
2023-04-27T17:31:38.707Z,101594.31
2023-04-27T17:34:10.252Z,101632.59
2023-04-27T17:36:39.083Z,101627.41
2023-04-27T17:39:07.851Z,101630.84
2023-04-27T17:46:30.723Z,101630.16
2023-04-27T17:49:03.646Z,101623.84
2023-04-27T17:51:34.965Z,101621.91
2023-04-27T17:54:03.891Z,101615.50
2023-04-27T17:56:35.122Z,101597.31
2023-04-27T17:59:09.267Z,101597.81
2023-04-27T18:01:44.543Z,101603.22
2023-04-27T18:04:16.706Z,101608.47
2023-04-27T18:06:45.627Z,101604.53
2023-04-27T18:09:14.924Z,101600.66
2023-04-27T18:11:43.972Z,101611.97
2023-04-27T18:14:13.390Z,101610.25
2023-04-27T18:16:43.040Z,101534.97
2023-04-27T18:19:11.987Z,101609.91
2023-04-27T18:21:42.569Z,101581.00
2023-04-27T18:24:11.491Z,101587.22
2023-04-27T18:26:40.267Z,101530.66
2023-04-27T18:29:09.112Z,101597.81
2023-04-27T18:31:38.216Z,101597.84
2023-04-27T18:34:07.008Z,101592.78
2023-04-27T18:36:35.845Z,101602.75
2023-04-27T18:39:06.040Z,101589.22
2023-04-27T18:41:34.937Z,101595.94
2023-04-27T18:44:07.004Z,101604.56
2023-04-27T18:46:39.050Z,101598.47
2023-04-27T18:49:07.991Z,101594.16
2023-04-27T18:51:36.960Z,101611.72
2023-04-27T18:54:07.408Z,101601.41
2023-04-27T18:56:36.371Z,101592.94
2023-04-27T19:04:00.198Z,101581.00
2023-04-27T19:06:29.634Z,101582.13
2023-04-27T19:08:58.684Z,101580.31
2023-04-27T19:11:29.629Z,101577.75
2023-04-27T19:13:58.593Z,101575.50
2023-04-27T19:16:27.747Z,101579.09
2023-04-27T19:18:57.134Z,101575.56
2023-04-27T19:21:26.843Z,101585.25
2023-04-27T19:23:55.926Z,101586.28
2023-04-27T19:26:24.774Z,101576.66
2023-04-27T19:28:56.097Z,101591.06
2023-04-27T19:31:25.170Z,101583.63
2023-04-27T19:36:37.875Z,101585.09
2023-04-27T19:39:07.097Z,101583.63
2023-04-27T19:41:35.929Z,101577.72
2023-04-27T19:44:06.657Z,101591.38
2023-04-27T19:46:35.478Z,101594.47
2023-04-27T19:49:04.432Z,101588.97
2023-04-27T19:51:33.238Z,101583.63
2023-04-27T19:54:02.098Z,101579.84
2023-04-27T19:56:31.309Z,101584.75
2023-04-27T19:59:00.038Z,101575.09
2023-04-27T20:01:30.539Z,101572.66
2023-04-27T20:03:59.498Z,101564.06
2023-04-27T20:06:29.312Z,101563.44
2023-04-27T20:08:58.133Z,101550.06
2023-04-27T20:11:27.169Z,101562.31
2023-04-27T20:13:55.997Z,101569.88
2023-04-27T20:16:27.491Z,101563.09
2023-04-27T20:18:57.769Z,101557.53
2023-04-27T20:21:28.136Z,101561.47
2023-04-27T20:23:57.214Z,101553.72
2023-04-27T20:26:26.284Z,101553.03
2023-04-27T20:28:55.833Z,101553.41
2023-04-27T20:31:25.636Z,101548.56
2023-04-27T20:33:54.600Z,101547.69
2023-04-27T20:36:25.146Z,101526.47
2023-04-27T20:38:54.729Z,101544.78
2023-04-27T20:41:24.198Z,101528.03
2023-04-27T20:43:53.517Z,101529.28
2023-04-27T20:46:22.666Z,101517.34
2023-04-27T20:48:54.356Z,101516.19
2023-04-27T20:51:27.908Z,101508.16
2023-04-27T20:53:57.442Z,101498.25
2023-04-27T20:56:27.038Z,101498.88
2023-04-27T20:58:56.060Z,101499.25
2023-04-27T21:01:24.935Z,101487.63
2023-04-27T21:03:54.211Z,101496.16
2023-04-27T21:06:23.022Z,101495.03
2023-04-27T21:08:53.201Z,101492.41
2023-04-27T21:11:22.397Z,101486.25
2023-04-27T21:13:53.984Z,101485.25
2023-04-27T21:16:22.872Z,101489.41
2023-04-27T21:18:51.559Z,101475.44
2023-04-27T21:21:22.079Z,101471.75
2023-04-27T21:24:00.560Z,101471.78
2023-04-27T21:26:37.717Z,101469.00
2023-04-27T21:29:09.236Z,101459.72
2023-04-27T21:31:38.165Z,101477.84
2023-04-27T21:34:07.054Z,101450.59
2023-04-27T21:36:37.241Z,101444.50
2023-04-27T21:39:06.425Z,101440.41
2023-04-27T21:41:39.253Z,101429.03
2023-04-27T21:44:10.109Z,101422.59
2023-04-27T21:46:38.970Z,101418.31
2023-04-27T21:49:07.906Z,101407.22
2023-04-27T21:51:36.928Z,101406.59
2023-04-27T21:54:05.901Z,101401.84
2023-04-27T21:56:34.749Z,101373.88
2023-04-27T21:59:04.842Z,101414.81
2023-04-27T22:01:33.714Z,101409.00
2023-04-27T22:04:04.135Z,101402.50
2023-04-27T22:06:33.739Z,101407.22
2023-04-27T22:09:03.099Z,101412.47
2023-04-27T22:11:32.309Z,101404.81
2023-04-27T22:14:01.136Z,101399.47
2023-04-27T22:16:31.494Z,101396.50
2023-04-27T22:19:01.153Z,101391.91
2023-04-27T22:21:29.941Z,101388.06
2023-04-27T22:23:58.666Z,101389.25
2023-04-27T22:26:27.420Z,101379.91
2023-04-27T22:28:56.147Z,101380.88
2023-04-27T22:31:25.071Z,101381.25
2023-04-27T22:33:55.241Z,101364.59
2023-04-27T22:36:26.630Z,101350.53
2023-04-27T22:38:55.662Z,101284.09
2023-04-27T22:41:24.433Z,101341.66
2023-04-27T22:43:53.233Z,101346.75
2023-04-27T22:46:23.234Z,101339.78
2023-04-27T22:48:53.207Z,101357.34
2023-04-27T22:51:24.079Z,101354.47
2023-04-27T22:53:52.938Z,101369.63
2023-04-27T22:56:22.515Z,101359.50
2023-04-27T22:58:53.770Z,101346.13
2023-04-27T23:01:22.680Z,101344.34
2023-04-27T23:03:53.300Z,101343.25
2023-04-27T23:06:23.533Z,101347.25
2023-04-27T23:08:52.314Z,101341.69
2023-04-27T23:11:26.921Z,101335.75
2023-04-27T23:13:57.556Z,101332.94
2023-04-27T23:16:26.838Z,101335.16
2023-04-27T23:18:55.525Z,101318.97
2023-04-27T23:21:28.284Z,101329.84
2023-04-27T23:23:57.002Z,101327.34
2023-04-27T23:26:25.770Z,101319.88
2023-04-27T23:28:54.582Z,101319.78
2023-04-27T23:31:24.406Z,101314.97
2023-04-27T23:33:55.554Z,101312.78
2023-04-27T23:36:24.199Z,101316.28
2023-04-27T23:38:54.262Z,101317.97
2023-04-27T23:41:23.375Z,101327.78
2023-04-27T23:43:52.078Z,101345.88
2023-04-27T23:46:20.788Z,101325.41
2023-04-27T23:48:49.806Z,101321.28
2023-04-27T23:51:18.658Z,101317.31
2023-04-27T23:53:49.470Z,101312.19
2023-04-27T23:56:20.391Z,101281.63
2023-04-27T23:58:49.203Z,101292.28
